Flight Track Log - Related Links

Times and Time Zones

All times are in EDT time to prevent confusion due to time zone crossing. See the SKW5631 flight status page for this flight to view local times or setup timezone preferences in your user account.


Time Position Orientation Groundspeed Altitude Reporting Facility
EDT Latitude Longitude Course Direction KTS MPH feet Rate Location/Type
Tue 06:38:10 PM 37.6833 -122.2833 50° Northeast 172 198 3,900  Level Northern Cal TRACON
Tue 06:39:10 PM 37.7000 -122.2333 67° East 162 186 5,300 1,650 Climbing Northern Cal TRACON
Tue 06:40:10 PM 37.7000 -122.1667 90° East 175 201 7,200 1,465 Climbing Northern Cal TRACON
Tue 06:41:17 PM 37.7058 -122.0947 84° East 204 235 8,400 1,313 Climbing Oakland Center
Tue 06:42:00 PM 37.6179 -122.3648 50° Northeast  Level FlightAware Approximate
Tue 06:42:18 PM 37.6869 -122.0192 108° East 225 259 10,000  Level Oakland Center
Tue 06:43:20 PM 37.6597 -121.9325 112° Southeast 224 258 11,900 1,561 Climbing Oakland Center
Tue 06:44:21 PM 37.6353 -121.8617 114° Southeast 220 253 13,200 1,200 Climbing Oakland Center
Tue 06:45:10 PM 37.6167 -121.8000 111° Southeast 229 264 14,100 1,046 Climbing Northern Cal TRACON
Tue 06:46:10 PM 37.5833 -121.7333 122° Southeast 239 275 15,100 1,000 Climbing Northern Cal TRACON
Tue 06:47:10 PM 37.5667 -121.6500 104° East 248 285 16,100 1,005 Climbing Northern Cal TRACON
Tue 06:49:27 PM 37.4714 -121.4903 127° Southeast 257 296 18,400 939 Climbing Oakland Center
Tue 06:50:28 PM 37.4228 -121.4256 133° Southeast 256 295 19,200 780 Climbing Oakland Center
Tue 06:51:30 PM 37.3717 -121.3603 135° Southeast 260 299 20,000 829 Climbing Oakland Center
Tue 06:52:31 PM 37.3281 -121.2761 123° Southeast 251 289 20,900 787 Climbing Oakland Center
Tue 06:53:32 PM 37.2897 -121.1972 121° Southeast 261 300 21,600 590 Climbing Oakland Center
Tue 06:54:33 PM 37.2483 -121.1225 125° Southeast 263 303 22,100 541 Climbing Oakland Center
Tue 06:55:34 PM 37.1925 -121.0558 136° Southeast 276 318 22,700 488 Climbing Oakland Center
Tue 06:56:36 PM 37.1342 -120.9919 139° Southeast 278 320 23,100 146 Climbing Oakland Center
Tue 06:57:37 PM 37.0761 -120.9256 138° Southeast 283 326 23,000 -49 Descending Oakland Center
Tue 06:58:38 PM 37.0189 -120.8539 135° Southeast 288 331 23,000  Level Oakland Center
Tue 06:59:39 PM 36.9594 -120.7872 138° Southeast 290 334 23,000  Level Oakland Center
Tue 07:00:40 PM 36.8897 -120.7036 136° Southeast 290 334 23,000  Level Oakland Center
Tue 07:01:42 PM 36.8294 -120.6364 138° Southeast 290 334 23,000  Level Oakland Center
Tue 07:02:43 PM 36.7806 -120.5772 136° Southeast 287 330 23,000  Level Oakland Center
Tue 07:03:44 PM 36.7097 -120.4956 137° Southeast 289 333 23,000  Level Oakland Center
Tue 07:04:45 PM 36.6511 -120.4272 137° Southeast 287 330 23,000 -341 Level Oakland Center
Tue 07:05:47 PM 36.5911 -120.3581 137° Southeast 295 339 22,300 -683 Descending Oakland Center
Tue 07:06:48 PM 36.5264 -120.2831 137° Southeast 314 361 21,600 -738 Descending Oakland Center
Tue 07:07:49 PM 36.4611 -120.2061 137° Southeast 323 372 20,800 -738 Descending Oakland Center
Tue 07:08:50 PM 36.3950 -120.1303 137° Southeast 324 373 20,100 -732 Descending Oakland Center
Tue 07:09:52 PM 36.3303 -120.0561 137° Southeast 318 366 19,300 -1,122 Descending Oakland Center
Tue 07:10:53 PM 36.2656 -119.9819 137° Southeast 317 365 17,800 -1,525 Descending Oakland Center
Tue 07:11:54 PM 36.2028 -119.9094 137° Southeast 309 356 16,200 -1,426 Descending Oakland Center
Tue 07:12:55 PM 36.1433 -119.8425 138° Southeast 291 335 14,900 -1,328 Descending Oakland Center
Tue 07:13:56 PM 36.0858 -119.7775 138° Southeast 281 323 13,500 -1,415 Descending Oakland Center
Tue 07:14:58 PM 36.0200 -119.7008 137° Southeast 271 312 12,000 -1,366 Descending Oakland Center
Tue 07:15:59 PM 35.9667 -119.6378 136° Southeast 266 306 10,700 -1,279 Descending Oakland Center
Tue 07:17:00 PM 35.9131 -119.5781 138° Southeast 263 303 9,400 -1,230 Descending Oakland Center
Tue 07:18:01 PM 35.8597 -119.5178 138° Southeast 260 299 8,200 -1,230 Descending Oakland Center
Tue 07:19:02 PM 35.8097 -119.4567 135° Southeast 257 296 6,900 -1,268 Descending Oakland Center
Tue 07:20:04 PM 35.7633 -119.3919 131° Southeast 255 293 5,600 -1,171 Descending Oakland Center
Tue 07:21:05 PM 35.7189 -119.3231 128° Southeast 256 295 4,500 -984 Descending Oakland Center
Tue 07:22:06 PM 35.6753 -119.2556 128° Southeast 255 293 3,600 -738 Descending Oakland Center
Tue 07:23:07 PM 35.6269 -119.1936 134° Southeast 251 289 3,000 -313 Descending Oakland Center
Tue 07:24:01 PM 35.5789 -119.1342 135° Southeast 249 287 3,000  Level Los Angeles Center
Tue 07:25:03 PM 35.5336 -119.0744 133° Southeast 249 287 3,000  Level Los Angeles Center
Tue 07:27:00 PM 35.4333 -119.0500 151° Southeast  Level FlightAware Approximate

Login

Don't have an account? Register now (free) for customized features, flight alerts, and more!